Time;durP1;ratioP1;P1;durP2;ratioP2;P2;SDS_P1;SDS_P2;PMS_P1;PMS_P2;Temp;Humidity;BMP_temperature;BMP_pressure;BME280_temperature;BME280_humidity;BME280_pressure;Samples;Min_cycle;Max_cycle;Signal;HPM_P1;HPM_P2
2022/04/18 00:00:25;;;;;;;4.82;2.50;;;;;;;10.03;36.77;101427.31;4971648;28;20197;-69
2022/04/18 00:02:51;;;;;;;3.08;2.88;;;;;;;9.99;37.63;101424.06;4963480;28;20022;-68
2022/04/18 00:05:16;;;;;;;2.53;2.40;;;;;;;9.91;37.13;101410.56;4953892;28;20959;-69
2022/04/18 00:07:41;;;;;;;2.90;2.60;;;;;;;9.90;36.35;101419.44;4956639;28;20011;-70
2022/04/18 00:10:07;;;;;;;3.50;2.60;;;;;;;10.02;37.76;101415.88;4954717;28;20019;-69
2022/04/18 00:12:33;;;;;;;2.78;2.53;;;;;;;10.02;38.21;101420.34;4954978;28;20022;-70
2022/04/18 00:14:58;;;;;;;2.63;2.40;;;;;;;9.90;38.29;101404.47;4954044;28;20021;-69
2022/04/18 00:17:24;;;;;;;3.10;2.65;;;;;;;9.87;37.09;101406.47;4937317;28;20495;-69
2022/04/18 00:19:49;;;;;;;2.55;2.35;;;;;;;9.91;37.52;101402.63;4938805;28;20924;-69
2022/04/18 00:22:15;;;;;;;3.25;2.53;;;;;;;9.87;37.34;101403.84;4972434;28;20018;-69
2022/04/18 00:24:40;;;;;;;2.40;2.30;;;;;;;9.86;38.42;101410.09;4969251;28;20038;-71
2022/04/18 00:27:05;;;;;;;2.30;2.20;;;;;;;9.86;37.68;101400.34;4965259;28;20412;-70
2022/04/18 00:29:31;;;;;;;2.42;2.20;;;;;;;9.76;37.61;101402.00;4975259;28;20014;-69
2022/04/18 00:31:56;;;;;;;2.67;2.40;;;;;;;9.73;36.28;101399.56;4968749;28;20962;-70
2022/04/18 00:34:22;;;;;;;2.47;2.28;;;;;;;9.68;37.05;101404.38;4954097;28;20018;-69
2022/04/18 00:36:47;;;;;;;5.88;2.72;;;;;;;9.74;37.80;101401.28;4967254;28;20027;-69
2022/04/18 00:39:12;;;;;;;2.65;2.47;;;;;;;9.70;37.61;101397.16;4971440;28;20029;-69
2022/04/18 00:41:38;;;;;;;2.40;2.30;;;;;;;9.62;37.52;101395.94;4969537;28;20791;-69
2022/04/18 00:44:04;;;;;;;2.85;2.45;;;;;;;9.64;37.84;101387.91;4936009;28;20658;-69
2022/04/18 00:46:29;;;;;;;2.50;2.30;;;;;;;9.64;37.91;101393.19;4936305;28;20019;-69
2022/04/18 00:48:55;;;;;;;2.45;2.25;;;;;;;9.59;37.89;101395.34;4936111;28;20156;-69
2022/04/18 00:51:21;;;;;;;3.00;2.70;;;;;;;9.58;37.80;101399.78;4954987;28;20034;-69
2022/04/18 00:53:47;;;;;;;2.33;2.22;;;;;;;9.57;38.16;101390.16;4935830;28;20664;-69
2022/04/18 00:56:13;;;;;;;2.53;2.33;;;;;;;9.59;37.28;101384.78;4950462;28;20015;-69
2022/04/18 00:58:39;;;;;;;2.60;2.40;;;;;;;9.54;37.98;101393.03;4950131;28;20006;-69
2022/04/18 01:01:04;;;;;;;2.40;2.30;;;;;;;9.54;37.94;101387.75;4935600;28;19998;-70
2022/04/18 01:03:30;;;;;;;2.58;2.47;;;;;;;9.47;38.19;101383.88;4959350;28;20854;-69
2022/04/18 01:06:05;;;;;;;3.15;2.25;;;;;;;9.48;38.64;101382.94;4951055;28;20324;-69
2022/04/18 01:08:34;;;;;;;3.03;2.40;;;;;;;9.40;38.31;101374.72;4953104;28;20054;-69
2022/04/18 01:11:00;;;;;;;2.92;2.28;;;;;;;9.38;38.87;101368.72;4939510;28;20451;-69
2022/04/18 01:13:27;;;;;;;2.92;2.72;;;;;;;9.40;39.03;101369.44;4959836;28;20336;-70
2022/04/18 01:15:53;;;;;;;2.38;2.28;;;;;;;9.39;39.12;101370.38;4965080;28;20014;-70
2022/04/18 01:18:18;;;;;;;2.85;2.15;;;;;;;9.38;38.21;101372.19;4952847;28;20263;-69
2022/04/18 01:20:44;;;;;;;2.20;2.10;;;;;;;9.42;39.80;101368.38;4945488;28;20901;-69
2022/04/18 01:23:09;;;;;;;2.20;2.10;;;;;;;9.38;40.28;101368.72;4958590;28;20026;-70
2022/04/18 01:31:04;;;;;;;2.17;2.08;;;;;;;9.14;40.26;101360.78;4947256;28;20045;-69
2022/04/18 01:33:29;;;;;;;2.00;1.90;;;;;;;9.26;39.74;101367.81;4976047;28;20733;-69
2022/04/18 01:35:55;;;;;;;3.15;2.45;;;;;;;9.16;39.76;101364.16;4958553;28;20014;-69
2022/04/18 01:38:20;;;;;;;2.55;2.35;;;;;;;9.06;40.14;101356.91;4977020;28;20156;-69
2022/04/18 01:40:45;;;;;;;2.17;2.08;;;;;;;9.10;41.28;101357.53;4975286;28;20034;-69
2022/04/18 01:43:11;;;;;;;2.33;2.22;;;;;;;9.04;40.72;101365.88;4942871;28;20027;-69
2022/04/18 01:45:36;;;;;;;2.17;2.05;;;;;;;9.11;42.04;101362.72;4963014;28;20026;-69
2022/04/18 01:48:01;;;;;;;2.45;2.30;;;;;;;8.89;42.48;101366.06;4957953;28;20023;-71
2022/04/18 01:50:27;;;;;;;3.95;2.00;;;;;;;8.82;42.39;101367.44;4954421;28;21118;-70
2022/04/18 01:52:52;;;;;;;3.28;1.98;;;;;;;8.83;41.97;101363.88;4975658;28;20136;-70
2022/04/18 01:55:18;;;;;;;2.25;2.15;;;;;;;8.86;42.23;101361.00;4942769;28;20014;-69
2022/04/18 01:57:43;;;;;;;2.40;2.05;;;;;;;8.77;42.64;101359.00;4944423;28;20029;-69
2022/04/18 02:00:09;;;;;;;2.33;2.05;;;;;;;8.76;42.97;101365.25;4967107;28;20156;-69
2022/04/18 02:02:34;;;;;;;3.97;2.10;;;;;;;8.69;43.08;101354.28;4967404;28;20025;-69
2022/04/18 02:05:03;;;;;;;2.60;2.40;;;;;;;8.69;42.35;101358.75;4976798;28;20046;-70
2022/04/18 02:07:31;;;;;;;2.20;2.10;;;;;;;8.53;43.90;101362.47;4964191;28;20606;-70
2022/04/18 02:09:56;;;;;;;2.40;2.30;;;;;;;8.46;43.81;101360.34;4960677;28;20034;-73
2022/04/18 02:12:22;;;;;;;2.45;2.35;;;;;;;8.49;44.31;101353.06;4960653;28;20083;-69
2022/04/18 02:14:47;;;;;;;2.30;2.20;;;;;;;8.41;44.33;101353.56;4978148;28;20034;-70
2022/04/18 02:17:13;;;;;;;2.30;2.20;;;;;;;8.37;44.25;101351.25;4964948;28;20018;-69
2022/04/18 02:19:38;;;;;;;2.08;1.98;;;;;;;8.29;44.78;101349.19;4981835;28;20045;-72
2022/04/18 02:22:03;;;;;;;3.13;2.00;;;;;;;8.32;45.19;101351.59;4980556;28;20420;-69
2022/04/18 02:24:29;;;;;;;2.13;2.03;;;;;;;8.32;44.68;101335.78;4970945;28;20508;-69
2022/04/18 02:26:54;;;;;;;2.60;2.03;;;;;;;8.25;45.32;101345.06;4948573;28;20015;-69
2022/04/18 02:29:19;;;;;;;5.20;2.20;;;;;;;8.19;45.24;101334.94;4947766;28;20054;-69
2022/04/18 02:34:29;;;;;;;2.10;2.00;;;;;;;7.93;47.37;101339.38;4983127;28;20045;-69
2022/04/18 02:36:55;;;;;;;1.98;1.80;;;;;;;7.79;48.00;101337.69;4987377;28;20090;-69
2022/04/18 02:39:20;;;;;;;2.10;2.00;;;;;;;7.59;49.48;101341.63;4962489;28;20032;-69
2022/04/18 02:41:45;;;;;;;2.28;2.10;;;;;;;7.59;49.76;101345.13;4956476;28;21138;-69
2022/04/18 02:44:11;;;;;;;2.45;2.00;;;;;;;7.59;50.26;101342.50;4988306;28;20018;-69
2022/04/18 02:46:36;;;;;;;2.33;1.90;;;;;;;7.60;50.68;101333.66;4961164;28;20035;-69
2022/04/18 02:49:02;;;;;;;2.95;2.00;;;;;;;7.30;52.18;101326.81;4959939;28;20023;-69
2022/04/18 02:51:27;;;;;;;2.10;1.90;;;;;;;7.24;52.39;101318.50;4973037;28;20009;-69
2022/04/18 02:53:53;;;;;;;4.55;2.00;;;;;;;7.16;52.64;101316.38;4970670;28;20454;-69
2022/04/18 02:56:19;;;;;;;2.67;2.00;;;;;;;7.08;53.11;101316.88;4952356;28;20469;-69
2022/04/18 02:58:44;;;;;;;2.35;1.83;;;;;;;7.01;53.57;101311.16;4969958;28;20398;-69
2022/04/18 03:01:09;;;;;;;2.10;1.90;;;;;;;6.99;54.15;101312.19;4938375;28;20015;-69
2022/04/18 03:03:35;;;;;;;2.00;1.90;;;;;;;6.88;54.62;101311.13;4963849;28;21161;-70
2022/04/18 03:06:00;;;;;;;2.65;1.90;;;;;;;6.97;54.25;101307.03;4951944;28;20264;-69
2022/04/18 03:08:26;;;;;;;3.45;1.90;;;;;;;6.77;54.59;101303.06;4970708;28;20114;-69
2022/04/18 03:11:03;;;;;;;3.55;1.90;;;;;;;6.74;54.13;101300.66;4952265;28;20019;-69
2022/04/18 03:13:29;;;;;;;2.13;2.03;;;;;;;6.66;52.88;101298.50;4921553;28;20011;-69
2022/04/18 03:15:54;;;;;;;2.33;2.22;;;;;;;6.64;52.73;101299.53;4951705;28;20011;-69
2022/04/18 03:18:20;;;;;;;2.40;2.20;;;;;;;6.61;52.04;101295.28;4953216;28;20038;-69
2022/04/18 03:20:45;;;;;;;2.22;2.03;;;;;;;6.56;51.87;101284.25;4960423;28;20014;-69
2022/04/18 03:23:11;;;;;;;2.10;2.00;;;;;;;6.46;52.73;101283.97;4970709;28;20389;-69
2022/04/18 03:25:36;;;;;;;2.70;2.03;;;;;;;6.61;51.94;101281.31;4953617;28;20045;-69
2022/04/18 03:28:02;;;;;;;3.58;2.10;;;;;;;6.48;52.08;101284.72;4938046;28;20202;-70
2022/04/18 03:30:28;;;;;;;2.08;1.98;;;;;;;6.57;52.39;101285.94;4938454;28;20029;-69
2022/04/18 03:32:53;;;;;;;2.35;2.25;;;;;;;6.67;51.77;101286.16;4959583;28;20780;-69
2022/04/18 03:35:18;;;;;;;2.25;2.15;;;;;;;6.70;52.35;101286.00;4951144;28;20027;-69
2022/04/18 03:40:27;;;;;;;2.17;2.03;;;;;;;6.58;52.84;101276.25;4954746;28;20143;-69
2022/04/18 03:42:53;;;;;;;2.50;2.22;;;;;;;6.54;52.05;101275.59;4933961;28;20592;-69
2022/04/18 03:45:18;;;;;;;2.10;2.00;;;;;;;6.67;52.29;101275.66;4930981;28;20007;-69
2022/04/18 03:47:44;;;;;;;2.30;1.90;;;;;;;6.74;52.10;101282.22;4951525;28;20022;-69
2022/04/18 03:50:09;;;;;;;2.22;2.10;;;;;;;6.67;51.92;101280.91;4963054;28;20416;-69
2022/04/18 03:52:35;;;;;;;2.17;2.08;;;;;;;6.62;52.73;101277.75;4943049;28;20034;-69
2022/04/18 03:55:00;;;;;;;2.22;2.10;;;;;;;6.78;52.01;101273.19;4950882;28;20179;-69
2022/04/18 03:57:25;;;;;;;2.03;1.92;;;;;;;6.70;52.69;101280.75;4949877;28;20018;-69
2022/04/18 03:59:51;;;;;;;2.25;2.05;;;;;;;6.86;52.72;101277.94;4950851;28;20124;-69
2022/04/18 04:02:16;;;;;;;2.30;2.20;;;;;;;6.74;53.27;101276.09;4938272;28;20101;-69
2022/04/18 04:04:42;;;;;;;2.30;2.10;;;;;;;6.58;53.18;101277.09;4938109;28;20027;-70
2022/04/18 04:07:07;;;;;;;2.17;2.08;;;;;;;6.47;54.32;101269.03;4942630;28;20045;-70
2022/04/18 04:09:33;;;;;;;2.10;1.98;;;;;;;6.47;54.87;101267.28;4934543;28;20524;-69
2022/04/18 04:11:59;;;;;;;2.47;2.33;;;;;;;6.51;54.87;101265.28;4951414;28;20061;-69
2022/04/18 04:14:24;;;;;;;3.25;2.40;;;;;;;6.49;54.46;101281.16;4937006;28;20030;-70
2022/04/18 04:16:50;;;;;;;2.90;2.20;;;;;;;6.38;55.29;101273.09;4948190;28;20033;-70
2022/04/18 04:19:15;;;;;;;2.28;2.17;;;;;;;6.21;56.47;101278.56;4959091;28;20014;-69
2022/04/18 04:21:40;;;;;;;2.05;1.95;;;;;;;6.20;55.89;101282.97;4968516;28;20032;-69
2022/04/18 04:24:06;;;;;;;2.50;2.30;;;;;;;5.98;57.06;101278.22;4967819;28;20041;-69
2022/04/18 04:26:32;;;;;;;2.08;1.88;;;;;;;6.03;57.18;101281.38;4959960;28;20219;-69
2022/04/18 04:28:57;;;;;;;4.30;2.08;;;;;;;6.08;57.64;101279.31;4946668;28;20059;-69
2022/04/18 04:31:22;;;;;;;2.10;2.00;;;;;;;6.21;57.00;101282.03;4958788;28;20170;-69
2022/04/18 04:33:48;;;;;;;2.22;1.90;;;;;;;6.26;56.72;101285.22;4951583;28;19999;-69
2022/04/18 04:36:15;;;;;;;2.30;2.10;;;;;;;6.17;57.08;101293.69;4952564;28;20473;-70
2022/04/18 04:38:40;;;;;;;1.90;1.80;;;;;;;6.11;57.05;101287.03;4941284;28;20007;-69
2022/04/18 04:41:06;;;;;;;2.10;2.00;;;;;;;6.01;57.82;101285.91;4937492;28;20036;-69
2022/04/18 04:43:31;;;;;;;2.40;2.22;;;;;;;5.98;57.62;101294.81;4971768;28;20914;-69
2022/04/18 04:45:57;;;;;;;2.30;2.10;;;;;;;5.80;58.13;101288.84;4970808;28;20475;-69
2022/04/18 04:48:23;;;;;;;4.28;2.10;;;;;;;5.87;58.41;101280.63;4955835;28;20026;-69
2022/04/18 04:50:48;;;;;;;1.88;1.70;;;;;;;5.81;58.67;101285.28;4954775;28;20091;-69
2022/04/18 04:53:13;;;;;;;5.50;2.28;;;;;;;5.92;58.14;101287.28;4955951;28;20018;-70
2022/04/18 04:55:39;;;;;;;3.13;2.15;;;;;;;5.95;58.38;101284.47;4957821;28;20015;-69
2022/04/18 04:58:04;;;;;;;2.13;1.92;;;;;;;5.90;58.52;101281.25;4963978;28;20964;-69
2022/04/18 05:00:30;;;;;;;2.30;2.17;;;;;;;5.89;58.34;101283.97;4961821;28;20494;-70
2022/04/18 05:02:56;;;;;;;3.20;2.10;;;;;;;5.82;58.43;101284.38;4943860;28;20006;-70
2022/04/18 05:05:22;;;;;;;2.30;2.10;;;;;;;5.86;59.41;101287.63;4963099;28;20031;-70
2022/04/18 05:07:47;;;;;;;1.88;1.77;;;;;;;5.97;59.24;101294.88;4968927;28;20030;-71
2022/04/18 05:10:13;;;;;;;2.00;1.90;;;;;;;5.83;59.45;101290.44;4972800;28;20035;-70
2022/04/18 05:12:39;;;;;;;2.17;2.00;;;;;;;5.79;59.16;101292.41;4972340;28;20083;-70
2022/04/18 05:15:05;;;;;;;2.45;1.95;;;;;;;5.70;59.90;101302.63;4951155;28;20015;-70
2022/04/18 05:17:30;;;;;;;2.35;2.15;;;;;;;5.74;59.32;101307.59;4973709;28;20139;-70
2022/04/18 05:19:56;;;;;;;2.92;1.95;;;;;;;5.68;59.62;101297.47;4942932;28;20227;-70
2022/04/18 05:22:21;;;;;;;2.70;2.22;;;;;;;5.76;59.20;101308.34;4958645;28;19999;-70
2022/04/18 05:24:47;;;;;;;2.17;2.08;;;;;;;5.94;59.49;101308.19;4968963;28;20026;-70
2022/04/18 05:27:15;;;;;;;2.08;1.98;;;;;;;5.98;59.38;101309.75;4947689;28;20022;-69
2022/04/18 05:29:43;;;;;;;1.90;1.80;;;;;;;5.82;59.28;101312.38;4971414;28;20014;-70
2022/04/18 05:32:09;;;;;;;1.92;1.83;;;;;;;5.76;58.97;101321.47;4961267;28;20025;-71
2022/04/18 05:34:34;;;;;;;2.30;2.10;;;;;;;5.78;58.68;101316.13;4957409;28;20056;-69
2022/04/18 05:37:00;;;;;;;2.25;1.92;;;;;;;5.80;59.45;101317.75;4963366;28;20015;-70
2022/04/18 05:39:26;;;;;;;1.90;1.80;;;;;;;5.84;59.65;101315.78;4966003;28;20131;-70
2022/04/18 05:41:51;;;;;;;2.25;2.03;;;;;;;5.95;59.88;101331.75;4936924;28;20010;-71
2022/04/18 05:44:16;;;;;;;3.05;1.67;;;;;;;6.11;58.86;101331.69;4936629;28;20026;-72
2022/04/18 05:46:42;;;;;;;1.80;1.70;;;;;;;6.29;59.45;101328.84;4921369;28;20031;-71
2022/04/18 05:49:07;;;;;;;1.73;1.73;;;;;;;6.42;58.77;101329.81;4958341;28;20826;-71
2022/04/18 05:51:33;;;;;;;5.18;2.00;;;;;;;6.45;57.30;101324.34;4932289;28;20713;-71
2022/04/18 05:54:00;;;;;;;1.75;1.70;;;;;;;6.46;57.79;101319.97;4955370;28;20006;-71
2022/04/18 05:56:25;;;;;;;1.70;1.60;;;;;;;6.50;57.99;101321.41;4953363;28;20443;-71
2022/04/18 05:58:51;;;;;;;2.22;2.00;;;;;;;6.59;57.54;101320.84;4948485;28;20023;-72
2022/04/18 06:01:16;;;;;;;1.88;1.77;;;;;;;6.72;57.66;101325.34;4944663;28;20910;-71
2022/04/18 06:03:42;;;;;;;2.42;1.90;;;;;;;6.84;57.67;101325.41;4960806;28;20014;-71
2022/04/18 06:06:07;;;;;;;1.92;1.83;;;;;;;7.09;57.03;101329.06;4952436;28;20010;-71
2022/04/18 06:08:32;;;;;;;1.92;1.83;;;;;;;7.37;56.22;101328.13;4949312;28;20018;-72
2022/04/18 06:10:58;;;;;;;2.20;2.00;;;;;;;7.51;57.44;101332.47;4964451;28;20026;-72
2022/04/18 06:13:24;;;;;;;2.10;2.00;;;;;;;7.61;56.98;101329.22;4968897;28;20877;-72
2022/04/18 06:15:52;;;;;;;5.13;2.50;;;;;;;7.68;56.98;101320.78;4968575;28;20030;-72
2022/04/18 06:18:18;;;;;;;4.72;2.00;;;;;;;7.73;57.32;101329.22;4939722;28;20006;-71
2022/04/18 06:20:44;;;;;;;1.98;1.77;;;;;;;7.82;57.05;101324.28;4942554;28;21243;-72
2022/04/18 06:23:09;;;;;;;2.88;1.80;;;;;;;7.96;56.13;101312.81;4952380;28;20014;-72
2022/04/18 06:25:37;;;;;;;2.13;1.92;;;;;;;8.14;56.14;101311.53;4956926;28;20854;-71
2022/04/18 06:28:03;;;;;;;2.72;2.20;;;;;;;8.26;55.47;101317.72;4957303;28;20886;-72
2022/04/18 06:30:29;;;;;;;3.38;2.17;;;;;;;8.38;55.00;101319.50;4955975;28;20009;-71
2022/04/18 06:32:55;;;;;;;2.10;2.00;;;;;;;8.55;53.11;101315.69;4957943;28;20014;-72
2022/04/18 06:35:20;;;;;;;2.05;1.90;;;;;;;8.73;50.45;101325.91;4957977;28;20034;-71
2022/04/18 06:37:46;;;;;;;3.35;2.30;;;;;;;8.83;49.63;101328.72;4973642;28;20999;-72
2022/04/18 06:40:11;;;;;;;2.25;2.05;;;;;;;8.99;47.60;101329.28;4955197;28;20273;-72
2022/04/18 06:42:37;;;;;;;2.13;1.90;;;;;;;9.09;47.82;101334.72;4971387;28;20010;-70
2022/04/18 06:45:03;;;;;;;2.08;1.95;;;;;;;9.23;46.86;101336.34;4956240;28;20034;-72
2022/04/18 06:47:28;;;;;;;2.03;1.92;;;;;;;9.37;47.14;101337.97;4957751;28;20023;-70
2022/04/18 06:49:54;;;;;;;2.30;2.20;;;;;;;9.46;45.84;101342.56;4955988;28;20026;-70
2022/04/18 06:52:19;;;;;;;2.17;2.08;;;;;;;9.59;45.35;101332.75;4971891;28;20729;-71
2022/04/18 06:54:45;;;;;;;2.30;2.03;;;;;;;9.66;45.60;101330.50;4935308;28;20719;-71
2022/04/18 06:57:11;;;;;;;1.90;1.80;;;;;;;9.72;45.16;101331.84;4957563;28;20006;-72
2022/04/18 06:59:37;;;;;;;2.63;1.83;;;;;;;9.80;45.41;101324.19;4923684;28;20185;-72
2022/04/18 07:02:03;;;;;;;2.63;2.10;;;;;;;9.91;45.18;101324.19;4945607;28;20077;-72
2022/04/18 07:04:28;;;;;;;1.90;1.80;;;;;;;9.99;45.19;101317.47;4970630;28;20564;-72
2022/04/18 07:06:54;;;;;;;2.45;1.95;;;;;;;10.08;44.88;101322.03;4966864;28;20504;-73
2022/04/18 07:09:19;;;;;;;1.83;1.80;;;;;;;10.23;48.15;101320.84;4935836;28;20017;-72
2022/04/18 07:11:45;;;;;;;2.20;2.10;;;;;;;10.62;48.88;101323.97;4959125;28;20046;-72
2022/04/18 07:14:16;;;;;;;3.08;2.50;;;;;;;10.73;43.27;101322.25;4935286;28;20007;-71
2022/04/18 07:16:42;;;;;;;2.10;2.00;;;;;;;10.84;42.32;101324.88;4943541;28;20360;-72
2022/04/18 07:19:07;;;;;;;2.17;2.08;;;;;;;10.80;42.09;101320.78;4960758;28;20022;-72
2022/04/18 07:21:33;;;;;;;2.33;2.00;;;;;;;10.91;44.08;101319.94;4936150;28;20625;-73
2022/04/18 07:23:59;;;;;;;3.30;2.22;;;;;;;10.98;42.36;101324.63;4942266;28;20022;-71
2022/04/18 07:26:24;;;;;;;3.80;2.28;;;;;;;11.09;41.37;101326.38;4944919;28;20091;-73
2022/04/18 07:28:50;;;;;;;2.35;2.22;;;;;;;11.17;39.75;101331.06;4941273;28;20050;-70
2022/04/18 07:31:15;;;;;;;2.67;2.25;;;;;;;11.23;39.22;101333.19;4932818;28;20580;-72
2022/04/18 07:33:41;;;;;;;2.50;2.30;;;;;;;11.29;39.21;101334.47;4967029;28;20027;-72
2022/04/18 07:36:06;;;;;;;2.47;2.38;;;;;;;11.31;38.74;101329.91;4931724;28;20244;-71
2022/04/18 07:38:50;;;;;;;2.20;2.08;;;;;;;11.39;38.58;101330.09;4952187;28;20019;-71
2022/04/18 07:41:17;;;;;;;2.50;2.40;;;;;;;11.41;38.41;101330.81;4948735;28;20010;-71
2022/04/18 07:43:42;;;;;;;2.50;2.30;;;;;;;11.44;38.73;101327.09;4948229;28;20117;-72
2022/04/18 07:46:08;;;;;;;2.22;2.13;;;;;;;11.52;38.88;101329.94;4950216;28;20018;-71
2022/04/18 07:48:33;;;;;;;2.63;2.10;;;;;;;11.59;38.91;101336.41;4961829;28;20707;-72
2022/04/18 07:53:43;;;;;;;2.28;2.10;;;;;;;11.74;39.54;101333.41;4934093;28;20494;-72
2022/04/18 07:56:08;;;;;;;2.40;2.20;;;;;;;11.76;38.52;101324.38;4951320;28;20014;-71
2022/04/18 07:58:33;;;;;;;2.00;1.90;;;;;;;11.89;39.11;101331.25;4954358;28;20356;-71
2022/04/18 08:00:59;;;;;;;2.75;2.08;;;;;;;11.95;38.84;101323.66;4968099;28;20029;-71
2022/04/18 08:03:24;;;;;;;2.10;2.00;;;;;;;11.98;37.90;101326.03;4963175;28;20625;-70
2022/04/18 08:05:49;;;;;;;2.08;1.98;;;;;;;12.11;38.64;101323.19;4962525;28;20465;-71
2022/04/18 08:08:15;;;;;;;2.33;2.13;;;;;;;12.16;39.72;101328.94;4961957;28;20010;-71
2022/04/18 08:10:41;;;;;;;2.85;2.10;;;;;;;12.34;41.07;101317.72;4935806;28;20354;-72
2022/04/18 08:13:06;;;;;;;2.00;1.90;;;;;;;12.53;39.57;101319.56;4933331;28;20014;-72
2022/04/18 08:15:32;;;;;;;3.13;1.85;;;;;;;12.56;38.35;101316.63;4965735;28;20835;-72
2022/04/18 08:17:57;;;;;;;2.15;2.05;;;;;;;12.70;37.42;101321.59;4963130;28;20494;-71
2022/04/18 08:20:23;;;;;;;2.03;1.92;;;;;;;12.66;36.80;101308.69;4954926;28;20809;-71
2022/04/18 08:22:49;;;;;;;2.00;1.90;;;;;;;12.89;38.13;101314.63;4950870;28;20041;-71
2022/04/18 08:25:14;;;;;;;1.90;1.80;;;;;;;12.95;36.17;101307.91;4941440;28;20053;-72
2022/04/18 08:27:40;;;;;;;2.05;1.95;;;;;;;13.17;37.45;101312.09;4945086;28;20022;-71
2022/04/18 08:30:06;;;;;;;2.92;1.90;;;;;;;13.08;36.47;101307.66;4930916;28;20027;-71
2022/04/18 08:32:40;;;;;;;2.17;2.00;;;;;;;13.32;37.03;101313.34;4952187;28;20836;-70
2022/04/18 08:35:06;;;;;;;2.10;2.00;;;;;;;13.47;36.83;101302.34;4952188;28;20377;-71
2022/04/18 08:37:33;;;;;;;1.80;1.70;;;;;;;13.59;35.31;101306.50;4955037;28;20028;-72
2022/04/18 08:39:58;;;;;;;2.20;1.80;;;;;;;13.76;36.67;101296.13;4951351;28;20077;-71
2022/04/18 08:42:23;;;;;;;1.88;1.77;;;;;;;13.79;35.10;101293.16;4934686;28;20022;-71
2022/04/18 08:44:53;;;;;;;1.90;1.75;;;;;;;13.96;35.97;101297.75;4951612;28;21209;-71
2022/04/18 08:52:48;;;;;;;2.00;1.90;;;;;;;14.18;34.38;101293.03;4967691;28;20021;-71
2022/04/18 08:55:14;;;;;;;2.00;1.90;;;;;;;14.45;35.28;101292.19;4950845;28;20030;-71
2022/04/18 08:57:40;;;;;;;2.28;2.17;;;;;;;14.79;36.35;101288.91;4932257;28;20006;-72
2022/04/18 09:00:06;;;;;;;2.20;2.10;;;;;;;15.02;36.78;101288.50;4934544;28;20660;-72
2022/04/18 09:02:32;;;;;;;1.75;1.70;;;;;;;15.35;36.95;101294.09;4940455;28;20080;-72
2022/04/18 09:04:57;;;;;;;2.53;2.10;;;;;;;15.59;31.56;101291.59;4951084;28;20100;-71
2022/04/18 09:07:23;;;;;;;1.98;1.88;;;;;;;15.72;32.49;101293.00;4932010;28;20856;-72
2022/04/18 09:09:54;;;;;;;2.20;2.10;;;;;;;15.83;34.14;101281.28;4933253;28;20275;-72
2022/04/18 09:12:19;;;;;;;1.90;1.80;;;;;;;16.24;31.50;101284.16;4933432;28;20936;-72
2022/04/18 09:14:54;;;;;;;2.05;1.95;;;;;;;16.34;30.93;101282.16;4948931;28;20017;-71
2022/04/18 09:17:29;;;;;;;2.70;2.50;;;;;;;16.78;30.95;101281.97;4933013;28;20011;-71
2022/04/18 09:20:09;;;;;;;2.08;1.92;;;;;;;17.14;31.43;101279.00;4948237;28;20015;-71
2022/04/18 09:22:41;;;;;;;2.17;2.08;;;;;;;17.42;33.60;101272.50;4914638;28;20021;-72
2022/04/18 09:25:18;;;;;;;2.03;1.92;;;;;;;17.27;31.15;101270.47;4963521;28;20023;-71
2022/04/18 09:27:57;;;;;;;2.17;2.08;;;;;;;17.33;28.59;101269.00;4954127;28;20030;-72
2022/04/18 09:30:25;;;;;;;2.28;1.88;;;;;;;17.62;28.60;101267.59;4942571;28;20026;-72
2022/04/18 09:33:09;;;;;;;1.90;1.80;;;;;;;18.27;31.69;101257.72;4943759;28;20011;-72
2022/04/18 09:35:35;;;;;;;2.50;2.35;;;;;;;18.17;27.71;101255.25;4951862;28;20271;-72
2022/04/18 09:38:08;;;;;;;2.35;2.20;;;;;;;18.58;27.73;101243.47;4931824;28;20014;-72
2022/04/18 09:40:35;;;;;;;2.30;2.20;;;;;;;18.69;27.56;101246.56;4951049;28;20095;-72
2022/04/18 09:43:01;;;;;;;5.03;2.50;;;;;;;18.64;27.35;101242.75;4930529;28;20448;-72
2022/04/18 09:45:26;;;;;;;2.92;2.72;;;;;;;18.68;27.66;101241.38;4941303;28;20670;-72
2022/04/18 09:48:00;;;;;;;2.38;2.20;;;;;;;19.13;26.55;101237.03;4948981;28;20066;-72
2022/04/18 09:53:24;;;;;;;2.75;2.15;;;;;;;20.13;25.85;101237.66;4948444;28;20057;-72
2022/04/18 09:55:51;;;;;;;2.30;2.20;;;;;;;20.33;25.42;101223.63;4934389;28;20209;-72
2022/04/18 09:58:16;;;;;;;2.13;2.03;;;;;;;20.83;25.45;101226.47;4944579;28;20519;-72
2022/04/18 10:00:41;;;;;;;2.30;2.20;;;;;;;21.00;26.14;101221.66;4932299;28;20022;-72
2022/04/18 10:03:10;;;;;;;2.20;2.10;;;;;;;21.15;26.54;101218.84;4946233;28;20014;-72
2022/04/18 10:05:36;;;;;;;2.58;2.38;;;;;;;20.91;24.11;101221.78;4926706;28;20019;-73
2022/04/18 10:08:03;;;;;;;3.60;2.00;;;;;;;21.11;24.39;101215.72;4933306;28;20109;-72
2022/04/18 10:10:31;;;;;;;3.05;2.00;;;;;;;21.42;22.47;101211.81;4966929;28;20015;-71
2022/04/18 10:12:57;;;;;;;2.20;2.10;;;;;;;21.72;21.08;101203.50;4957587;28;20019;-72
2022/04/18 10:15:23;;;;;;;1.90;1.80;;;;;;;22.22;21.64;101201.41;4949486;28;20728;-72
2022/04/18 10:17:48;;;;;;;2.22;2.10;;;;;;;21.88;21.15;101191.56;4931138;28;20267;-72
2022/04/18 10:20:32;;;;;;;2.15;2.00;;;;;;;22.40;20.88;101194.66;4932644;28;20007;-72
2022/04/18 10:23:03;;;;;;;2.33;2.23;;;;;;;22.04;21.87;101193.06;4950324;28;20007;-72
2022/04/18 10:25:53;;;;;;;2.00;1.90;;;;;;;21.89;21.52;101191.34;4954437;28;20703;-72
2022/04/18 10:28:19;;;;;;;1.88;1.77;;;;;;;22.76;21.07;101185.34;4954767;28;21296;-72
2022/04/18 10:30:56;;;;;;;2.83;2.00;;;;;;;22.57;21.19;101182.44;4937918;28;20895;-72
2022/04/18 10:33:21;;;;;;;1.90;1.80;;;;;;;23.52;21.03;101184.06;4939709;28;20873;-72
2022/04/18 10:35:54;;;;;;;1.90;1.80;;;;;;;23.20;21.87;101175.81;4965521;28;20014;-72
2022/04/18 10:38:24;;;;;;;2.05;1.95;;;;;;;23.25;21.84;101167.94;4933161;28;20017;-72
2022/04/18 10:40:49;;;;;;;1.80;1.70;;;;;;;23.49;22.22;101173.66;4944521;28;20248;-72
2022/04/18 10:43:15;;;;;;;2.78;1.73;;;;;;;23.63;22.96;101169.06;4942288;28;20140;-72
2022/04/18 10:45:40;;;;;;;2.45;2.28;;;;;;;23.81;22.39;101165.66;4944589;28;20088;-72
2022/04/18 10:48:08;;;;;;;1.67;1.58;;;;;;;24.24;22.19;101158.81;4956907;28;20435;-72
2022/04/18 10:50:44;;;;;;;2.03;1.83;;;;;;;24.47;21.99;101150.13;4960844;28;20029;-72
2022/04/18 10:53:14;;;;;;;2.15;1.88;;;;;;;24.47;19.41;101152.84;4951832;28;20516;-71
2022/04/18 10:56:00;;;;;;;2.13;2.00;;;;;;;25.22;18.41;101157.41;4942698;28;20030;-72
2022/04/18 10:58:27;;;;;;;1.73;1.63;;;;;;;24.61;20.03;101148.19;4944286;28;20598;-71
2022/04/18 11:00:52;;;;;;;2.00;1.90;;;;;;;25.91;20.02;101151.00;4952350;28;20037;-72
2022/04/18 11:03:58;;;;;;;1.90;1.80;;;;;;;25.11;19.62;101150.03;4959708;28;20066;-72
2022/04/18 11:06:24;;;;;;;2.20;1.60;;;;;;;25.58;19.75;101141.41;4949841;28;20030;-72
2022/04/18 11:09:09;;;;;;;1.60;1.50;;;;;;;24.89;19.66;101155.88;4946235;28;20021;-72
2022/04/18 11:11:45;;;;;;;1.77;1.67;;;;;;;24.96;18.92;101153.06;4930179;28;20031;-71
2022/04/18 11:14:18;;;;;;;1.75;1.65;;;;;;;24.92;17.70;101150.00;4948227;28;20112;-71
2022/04/18 11:16:43;;;;;;;1.50;1.50;;;;;;;25.78;19.98;101149.28;4960446;28;20026;-72
2022/04/18 11:19:14;;;;;;;1.80;1.70;;;;;;;26.47;18.93;101138.09;4958782;28;20524;-72
2022/04/18 11:22:04;;;;;;;2.00;1.90;;;;;;;26.30;17.11;101129.81;4941611;28;20769;-72
2022/04/18 11:24:43;;;;;;;1.60;1.50;;;;;;;26.71;19.47;101128.97;4947143;28;20170;-72
2022/04/18 11:27:20;;;;;;;3.10;1.50;;;;;;;26.20;17.92;101123.06;4946356;28;20037;-72
2022/04/18 11:29:50;;;;;;;2.97;1.50;;;;;;;26.10;18.28;101132.81;4938147;28;20950;-73
2022/04/18 11:32:16;;;;;;;1.48;1.38;;;;;;;26.93;16.66;101131.06;4930061;28;20978;-72
2022/04/18 11:34:47;;;;;;;1.60;1.50;;;;;;;26.55;15.86;101125.03;4941659;28;20027;-73
2022/04/18 11:37:20;;;;;;;1.30;1.30;;;;;;;26.91;15.10;101123.16;4929043;28;20019;-72
2022/04/18 11:39:48;;;;;;;1.17;1.15;;;;;;;27.00;16.91;101117.38;4937198;28;20700;-72
2022/04/18 11:42:17;;;;;;;1.40;1.30;;;;;;;26.51;17.55;101126.56;4949562;28;20873;-73
2022/04/18 11:44:43;;;;;;;1.13;1.10;;;;;;;26.51;18.01;101118.41;4951868;28;20089;-73
2022/04/18 11:47:09;;;;;;;2.83;1.30;;;;;;;26.01;19.39;101118.78;4937641;28;20033;-72
2022/04/18 11:49:38;;;;;;;1.15;1.15;;;;;;;26.93;19.48;101108.53;4951949;28;20431;-73